KBDL Airport (Bradley Intl) Information

FAA: BDL - ICAO: KBDL

KBDL Airport Location

State Connecticut
County Hartford
City Windsor Locks
KBDL Airport is 3 miles west of Windsor Locks, CT.
Latitude 41-56-20.9000N
Longitude 072-41-00.1000W
Elevation 173ft

KBDL Airport METARs

METAR KBDL 070751Z 29007KT 10SM FEW060 FEW250 03/M06 A2991 RMK AO2 SLP130 T00331061
Altimeter 29.91"
Temperature 3.3°C (37.9°F)
Wind 290° at 7KT
Clouds few at 6,000ft few at 25,000ft
Visibility 10.0mi
Time observed: 2021-12-07T07:51:00Z

KBDL Airport Details

Status Operational
Activation July 1942
Ownership Public
Usage Public
Chart NEW YORK
ATC on-site Yes
Beacon schedule sunset-sunrise
Beacon color clear green

KBDL Airport Contacts

Owner CONNECTICUT AIRPORT AUTHORITY
Owner address AIRPORT ADMINISTRATION OFFICE, TERMINAL A, 3RD FLOOR, WINDSOR LOCKS, CT 06096-1022
Owner phone 860-594-2530
Manager KEITH J. NASIN
Manager address NORTH WINDHAM ROAD, WILLIMANTIC, CT 06226
Manager phone 203-423-1831

KBDL Airport (Bradley Intl) Radio Frequencies

KBDL (Airport) Radio Frequencies

UNICOM 122.95
Common traffic advisory frequency (CTAF) N/A